This is the latest recevied weather packets stored in our database for station/object HB9TJM-8. If no packets are shown the sender has not sent any weather packets the latest 10 day(s).
| Time | Temp. | Humidity | Pressure | Rain* | Wind** | Luminosity | Snow |
|---|---|---|---|---|---|---|---|
| 1777597843 | 7.22° C | 45% | 1023.3 hPa | 0 mm | - | 0 W/m² | - |
| 1777597535 | 7.22° C | 45% | 1023.4 hPa | 0 mm | - | 0 W/m² | - |
| 1777597228 | 7.78° C | 42% | 1023.4 hPa | 0 mm | - | 0 W/m² | - |
| 1777596920 | 7.22° C | 44% | 1023.9 hPa | 0 mm | - | 0 W/m² | - |
| 1777596613 | 7.22° C | 44% | 1023.4 hPa | 0 mm | - | 0 W/m² | - |
| 1777596305 | 7.78° C | 42% | 1023.6 hPa | 0 mm | - | 0 W/m² | - |
| 1777595998 | 7.78° C | 42% | 1023.4 hPa | 0 mm | - | 0 W/m² | - |
| 1777595691 | 7.78° C | 42% | 1023.4 hPa | 0 mm | - | 0 W/m² | - |
| 1777595383 | 7.78° C | 42% | 1023.7 hPa | 0 mm | - | 0 W/m² | - |
| 1777595076 | 7.78° C | 41% | 1023.5 hPa | 0 mm | - | 0 W/m² | - |
| 1777594768 | 7.78° C | 41% | 1023.5 hPa | 0 mm | - | 0 W/m² | - |
| 1777594461 | 8.33° C | 41% | 1023.5 hPa | 0 mm | - | 0 W/m² | - |
| 1777594154 | 8.33° C | 41% | 1023.5 hPa | 0 mm | - | 0 W/m² | - |
| 1777593847 | 8.33° C | 39% | 1023.6 hPa | 0 mm | - | 0 W/m² | - |
| 1777593539 | 7.78° C | 41% | 1023.4 hPa | 0 mm | - | 0 W/m² | - |
| 1777593232 | 8.33° C | 40% | 1023.1 hPa | 0 mm | - | 0 W/m² | - |
| 1777592924 | 8.33° C | 39% | 1023.2 hPa | 0 mm | - | 0 W/m² | - |
| 1777592616 | 8.89° C | 39% | 1023.3 hPa | 0 mm | - | 0 W/m² | - |
| 1777592309 | 8.89° C | 38% | 1023.5 hPa | 0 mm | - | 0 W/m² | - |
| 1777592001 | 8.89° C | 37% | 1023.3 hPa | 0 mm | - | 0 W/m² | - |
| 1777591694 | 8.89° C | 37% | 1022.7 hPa | 0 mm | - | 0 W/m² | - |
| 1777591386 | 8.89° C | 37% | 1023 hPa | 0 mm | - | 0 W/m² | - |
| 1777591078 | 8.89° C | 38% | 1023.4 hPa | 0 mm | - | 0 W/m² | - |
| 1777590770 | 9.44° C | 37% | 1022.8 hPa | 0 mm | - | 0 W/m² | - |
| 1777590463 | 9.44° C | 37% | 1023.3 hPa | 0 mm | - | 0 W/m² | - |
* Rain latest hour (hover to see other rain measurements)
** Current wind speed in m/s (hover to see current wind gust speed)